sensor_id;sensor_type;location;lat;lon;timestamp;P1;durP1;ratioP1;P2;durP2;ratioP2
22046;SDS011;11187;49.412;20.956;2024-03-23T00:56:25;41.83;;;28.23;;
22046;SDS011;11187;49.412;20.956;2024-03-23T00:58:57;43.08;;;29.80;;
22046;SDS011;11187;49.412;20.956;2024-03-23T01:01:43;42.25;;;27.73;;
22046;SDS011;11187;49.412;20.956;2024-03-23T01:04:15;42.13;;;28.10;;
22046;SDS011;11187;49.412;20.956;2024-03-23T01:07:01;36.58;;;26.77;;
22046;SDS011;11187;49.412;20.956;2024-03-23T01:09:33;44.13;;;28.25;;
22046;SDS011;11187;49.412;20.956;2024-03-23T01:12:19;40.88;;;27.95;;
22046;SDS011;11187;49.412;20.956;2024-03-23T01:14:51;41.47;;;28.52;;
22046;SDS011;11187;49.412;20.956;2024-03-23T01:17:37;42.83;;;27.88;;
22046;SDS011;11187;49.412;20.956;2024-03-23T01:20:30;39.42;;;28.60;;
22046;SDS011;11187;49.412;20.956;2024-03-23T01:23:23;42.75;;;30.35;;
22046;SDS011;11187;49.412;20.956;2024-03-23T01:26:16;44.25;;;29.88;;
22046;SDS011;11187;49.412;20.956;2024-03-23T01:29:09;45.88;;;31.08;;
22046;SDS011;11187;49.412;20.956;2024-03-23T01:31:41;45.35;;;31.95;;
22046;SDS011;11187;49.412;20.956;2024-03-23T01:34:27;44.97;;;29.35;;
22046;SDS011;11187;49.412;20.956;2024-03-23T01:37:00;44.95;;;30.75;;
22046;SDS011;11187;49.412;20.956;2024-03-23T01:39:46;39.58;;;26.15;;
22046;SDS011;11187;49.412;20.956;2024-03-23T01:42:19;40.88;;;28.75;;
22046;SDS011;11187;49.412;20.956;2024-03-23T01:45:06;43.17;;;28.33;;
22046;SDS011;11187;49.412;20.956;2024-03-23T01:47:39;38.58;;;26.48;;
22046;SDS011;11187;49.412;20.956;2024-03-23T01:50:25;36.50;;;28.25;;
22046;SDS011;11187;49.412;20.956;2024-03-23T01:52:58;38.33;;;27.20;;
22046;SDS011;11187;49.412;20.956;2024-03-23T01:55:45;38.95;;;28.83;;
22046;SDS011;11187;49.412;20.956;2024-03-23T01:58:17;37.72;;;28.35;;
22046;SDS011;11187;49.412;20.956;2024-03-23T02:01:03;43.83;;;29.55;;
22046;SDS011;11187;49.412;20.956;2024-03-23T02:03:36;39.58;;;28.05;;
22046;SDS011;11187;49.412;20.956;2024-03-23T02:06:22;40.40;;;29.58;;
22046;SDS011;11187;49.412;20.956;2024-03-23T02:08:56;38.25;;;28.60;;
22046;SDS011;11187;49.412;20.956;2024-03-23T02:11:42;37.20;;;28.77;;
22046;SDS011;11187;49.412;20.956;2024-03-23T02:14:21;39.42;;;28.92;;
22046;SDS011;11187;49.412;20.956;2024-03-23T02:17:07;43.00;;;30.30;;
22046;SDS011;11187;49.412;20.956;2024-03-23T02:19:47;39.00;;;26.05;;
22046;SDS011;11187;49.412;20.956;2024-03-23T02:22:36;40.50;;;28.45;;
22046;SDS011;11187;49.412;20.956;2024-03-23T02:25:22;37.40;;;27.50;;
22046;SDS011;11187;49.412;20.956;2024-03-23T02:28:15;36.60;;;26.65;;
22046;SDS011;11187;49.412;20.956;2024-03-23T02:30:50;43.42;;;29.20;;
22046;SDS011;11187;49.412;20.956;2024-03-23T02:33:37;37.70;;;27.30;;
22046;SDS011;11187;49.412;20.956;2024-03-23T02:36:09;34.67;;;25.63;;
22046;SDS011;11187;49.412;20.956;2024-03-23T02:38:55;35.03;;;27.55;;
22046;SDS011;11187;49.412;20.956;2024-03-23T02:41:27;36.30;;;26.48;;
22046;SDS011;11187;49.412;20.956;2024-03-23T02:44:13;38.67;;;27.55;;
22046;SDS011;11187;49.412;20.956;2024-03-23T02:46:45;37.03;;;26.02;;
22046;SDS011;11187;49.412;20.956;2024-03-23T02:49:31;35.40;;;25.30;;
22046;SDS011;11187;49.412;20.956;2024-03-23T02:52:03;37.25;;;26.98;;
22046;SDS011;11187;49.412;20.956;2024-03-23T02:54:49;34.08;;;26.48;;
22046;SDS011;11187;49.412;20.956;2024-03-23T02:57:21;34.90;;;26.23;;
22046;SDS011;11187;49.412;20.956;2024-03-23T03:00:07;38.40;;;26.52;;
22046;SDS011;11187;49.412;20.956;2024-03-23T03:02:40;36.95;;;26.20;;
22046;SDS011;11187;49.412;20.956;2024-03-23T03:05:26;34.97;;;26.95;;
22046;SDS011;11187;49.412;20.956;2024-03-23T03:07:58;36.40;;;27.23;;
22046;SDS011;11187;49.412;20.956;2024-03-23T03:10:51;37.30;;;26.08;;
22046;SDS011;11187;49.412;20.956;2024-03-23T03:13:44;36.85;;;25.80;;
22046;SDS011;11187;49.412;20.956;2024-03-23T03:16:16;34.20;;;25.55;;
22046;SDS011;11187;49.412;20.956;2024-03-23T03:19:03;37.38;;;27.10;;
22046;SDS011;11187;49.412;20.956;2024-03-23T03:21:35;36.33;;;27.48;;
22046;SDS011;11187;49.412;20.956;2024-03-23T03:24:22;34.58;;;26.98;;
22046;SDS011;11187;49.412;20.956;2024-03-23T03:27:08;37.20;;;27.42;;
22046;SDS011;11187;49.412;20.956;2024-03-23T03:30:04;35.97;;;26.70;;
22046;SDS011;11187;49.412;20.956;2024-03-23T03:32:37;38.45;;;26.73;;
22046;SDS011;11187;49.412;20.956;2024-03-23T03:35:23;43.70;;;29.60;;
22046;SDS011;11187;49.412;20.956;2024-03-23T03:37:56;38.33;;;27.75;;
22046;SDS011;11187;49.412;20.956;2024-03-23T03:40:43;37.05;;;26.98;;
22046;SDS011;11187;49.412;20.956;2024-03-23T03:43:15;36.35;;;26.42;;
22046;SDS011;11187;49.412;20.956;2024-03-23T03:46:03;34.83;;;27.63;;
22046;SDS011;11187;49.412;20.956;2024-03-23T03:48:35;34.45;;;25.42;;
22046;SDS011;11187;49.412;20.956;2024-03-23T03:51:31;35.08;;;24.73;;
22046;SDS011;11187;49.412;20.956;2024-03-23T03:54:27;32.92;;;24.38;;
22046;SDS011;11187;49.412;20.956;2024-03-23T03:56:59;31.85;;;25.35;;
22046;SDS011;11187;49.412;20.956;2024-03-23T03:59:55;32.00;;;25.38;;
22046;SDS011;11187;49.412;20.956;2024-03-23T04:02:27;32.40;;;24.50;;
22046;SDS011;11187;49.412;20.956;2024-03-23T04:05:13;32.03;;;24.23;;
22046;SDS011;11187;49.412;20.956;2024-03-23T04:07:47;34.10;;;23.90;;
22046;SDS011;11187;49.412;20.956;2024-03-23T04:10:33;35.50;;;26.05;;
22046;SDS011;11187;49.412;20.956;2024-03-23T04:13:06;32.10;;;24.98;;
22046;SDS011;11187;49.412;20.956;2024-03-23T04:15:57;34.08;;;25.50;;
22046;SDS011;11187;49.412;20.956;2024-03-23T04:18:30;34.75;;;27.42;;
22046;SDS011;11187;49.412;20.956;2024-03-23T04:21:17;37.13;;;26.13;;
22046;SDS011;11187;49.412;20.956;2024-03-23T04:23:49;37.28;;;26.83;;
22046;SDS011;11187;49.412;20.956;2024-03-23T04:26:41;38.75;;;26.35;;
22046;SDS011;11187;49.412;20.956;2024-03-23T04:29:13;37.55;;;26.38;;
22046;SDS011;11187;49.412;20.956;2024-03-23T04:32:03;33.83;;;24.95;;
22046;SDS011;11187;49.412;20.956;2024-03-23T04:34:43;39.42;;;26.27;;
22046;SDS011;11187;49.412;20.956;2024-03-23T04:37:23;34.42;;;25.42;;
22046;SDS011;11187;49.412;20.956;2024-03-23T04:40:04;31.27;;;24.73;;
22046;SDS011;11187;49.412;20.956;2024-03-23T04:42:43;37.38;;;26.42;;
22046;SDS011;11187;49.412;20.956;2024-03-23T04:45:22;35.80;;;26.00;;
22046;SDS011;11187;49.412;20.956;2024-03-23T04:48:09;35.78;;;26.23;;
22046;SDS011;11187;49.412;20.956;2024-03-23T04:50:48;38.88;;;26.98;;
22046;SDS011;11187;49.412;20.956;2024-03-23T04:53:29;37.00;;;27.25;;
22046;SDS011;11187;49.412;20.956;2024-03-23T04:56:08;36.95;;;27.00;;
22046;SDS011;11187;49.412;20.956;2024-03-23T04:58:47;40.25;;;28.75;;
22046;SDS011;11187;49.412;20.956;2024-03-23T05:01:27;36.85;;;27.45;;
22046;SDS011;11187;49.412;20.956;2024-03-23T05:04:13;34.08;;;27.33;;
22046;SDS011;11187;49.412;20.956;2024-03-23T05:06:45;36.65;;;27.75;;
22046;SDS011;11187;49.412;20.956;2024-03-23T05:09:31;35.85;;;26.30;;
22046;SDS011;11187;49.412;20.956;2024-03-23T05:12:04;39.80;;;27.65;;
22046;SDS011;11187;49.412;20.956;2024-03-23T05:14:50;37.75;;;27.13;;
22046;SDS011;11187;49.412;20.956;2024-03-23T05:17:23;35.92;;;28.17;;
22046;SDS011;11187;49.412;20.956;2024-03-23T05:20:09;38.22;;;28.20;;
22046;SDS011;11187;49.412;20.956;2024-03-23T05:22:44;39.47;;;27.55;;
22046;SDS011;11187;49.412;20.956;2024-03-23T05:25:30;41.72;;;30.00;;
22046;SDS011;11187;49.412;20.956;2024-03-23T05:28:23;39.85;;;29.20;;
22046;SDS011;11187;49.412;20.956;2024-03-23T05:30:55;35.05;;;27.10;;
22046;SDS011;11187;49.412;20.956;2024-03-23T05:33:41;38.05;;;28.70;;
22046;SDS011;11187;49.412;20.956;2024-03-23T05:36:13;41.60;;;30.08;;
22046;SDS011;11187;49.412;20.956;2024-03-23T05:38:59;42.40;;;27.70;;
22046;SDS011;11187;49.412;20.956;2024-03-23T05:41:31;43.83;;;30.13;;
22046;SDS011;11187;49.412;20.956;2024-03-23T05:44:17;38.60;;;28.88;;
22046;SDS011;11187;49.412;20.956;2024-03-23T05:46:50;44.42;;;28.52;;
22046;SDS011;11187;49.412;20.956;2024-03-23T05:49:37;43.00;;;31.15;;
22046;SDS011;11187;49.412;20.956;2024-03-23T05:52:09;39.95;;;28.17;;
22046;SDS011;11187;49.412;20.956;2024-03-23T05:54:55;44.35;;;29.75;;
22046;SDS011;11187;49.412;20.956;2024-03-23T05:57:34;42.67;;;30.83;;
22046;SDS011;11187;49.412;20.956;2024-03-23T06:00:20;41.65;;;30.33;;
22046;SDS011;11187;49.412;20.956;2024-03-23T06:02:52;39.38;;;30.10;;
22046;SDS011;11187;49.412;20.956;2024-03-23T06:05:38;44.10;;;31.73;;
22046;SDS011;11187;49.412;20.956;2024-03-23T06:08:10;43.15;;;31.05;;
22046;SDS011;11187;49.412;20.956;2024-03-23T06:10:56;48.08;;;29.70;;
22046;SDS011;11187;49.412;20.956;2024-03-23T06:13:28;48.75;;;34.03;;
22046;SDS011;11187;49.412;20.956;2024-03-23T06:16:14;44.22;;;30.58;;
22046;SDS011;11187;49.412;20.956;2024-03-23T06:18:46;40.17;;;28.92;;
22046;SDS011;11187;49.412;20.956;2024-03-23T06:21:33;41.47;;;30.90;;
22046;SDS011;11187;49.412;20.956;2024-03-23T06:24:05;44.10;;;28.23;;
22046;SDS011;11187;49.412;20.956;2024-03-23T06:26:51;44.90;;;28.77;;
22046;SDS011;11187;49.412;20.956;2024-03-23T06:29:44;37.97;;;28.65;;
22046;SDS011;11187;49.412;20.956;2024-03-23T06:32:37;38.08;;;28.23;;
22046;SDS011;11187;49.412;20.956;2024-03-23T06:35:09;35.85;;;28.73;;
22046;SDS011;11187;49.412;20.956;2024-03-23T06:38:02;36.00;;;27.13;;
22046;SDS011;11187;49.412;20.956;2024-03-23T06:40:35;35.42;;;28.08;;
22046;SDS011;11187;49.412;20.956;2024-03-23T06:43:21;37.17;;;26.42;;
22046;SDS011;11187;49.412;20.956;2024-03-23T06:45:53;39.50;;;27.63;;
22046;SDS011;11187;49.412;20.956;2024-03-23T06:48:40;41.20;;;29.27;;
22046;SDS011;11187;49.412;20.956;2024-03-23T06:51:12;38.03;;;27.75;;
22046;SDS011;11187;49.412;20.956;2024-03-23T06:53:58;40.08;;;26.50;;
22046;SDS011;11187;49.412;20.956;2024-03-23T06:56:30;39.10;;;27.98;;
22046;SDS011;11187;49.412;20.956;2024-03-23T06:59:16;39.20;;;28.15;;
22046;SDS011;11187;49.412;20.956;2024-03-23T07:01:55;37.20;;;26.65;;
22046;SDS011;11187;49.412;20.956;2024-03-23T07:04:41;37.78;;;25.90;;
22046;SDS011;11187;49.412;20.956;2024-03-23T07:07:13;38.78;;;28.70;;
22046;SDS011;11187;49.412;20.956;2024-03-23T07:09:59;37.65;;;27.90;;
22046;SDS011;11187;49.412;20.956;2024-03-23T07:12:31;35.65;;;26.77;;
22046;SDS011;11187;49.412;20.956;2024-03-23T07:15:17;38.53;;;27.02;;
22046;SDS011;11187;49.412;20.956;2024-03-23T07:17:56;36.20;;;26.10;;
22046;SDS011;11187;49.412;20.956;2024-03-23T07:20:35;37.53;;;25.65;;
22046;SDS011;11187;49.412;20.956;2024-03-23T07:23:14;34.47;;;26.95;;
22046;SDS011;11187;49.412;20.956;2024-03-23T07:25:57;37.75;;;28.02;;
22046;SDS011;11187;49.412;20.956;2024-03-23T07:28:36;32.45;;;24.58;;
22046;SDS011;11187;49.412;20.956;2024-03-23T07:31:16;36.72;;;26.80;;
22046;SDS011;11187;49.412;20.956;2024-03-23T07:33:55;38.25;;;28.10;;
22046;SDS011;11187;49.412;20.956;2024-03-23T07:36:34;38.45;;;27.20;;
22046;SDS011;11187;49.412;20.956;2024-03-23T07:39:13;39.78;;;29.35;;
22046;SDS011;11187;49.412;20.956;2024-03-23T07:41:52;39.75;;;28.80;;
22046;SDS011;11187;49.412;20.956;2024-03-23T07:44:31;35.83;;;24.63;;
22046;SDS011;11187;49.412;20.956;2024-03-23T07:47:10;37.08;;;28.65;;
22046;SDS011;11187;49.412;20.956;2024-03-23T07:49:49;40.13;;;28.00;;
22046;SDS011;11187;49.412;20.956;2024-03-23T07:52:35;37.80;;;26.55;;
22046;SDS011;11187;49.412;20.956;2024-03-23T07:55:07;36.38;;;27.45;;
22046;SDS011;11187;49.412;20.956;2024-03-23T07:57:53;39.17;;;28.02;;
22046;SDS011;11187;49.412;20.956;2024-03-23T08:00:32;37.95;;;27.48;;
22046;SDS011;11187;49.412;20.956;2024-03-23T08:03:11;35.90;;;27.90;;
22046;SDS011;11187;49.412;20.956;2024-03-23T08:05:50;39.42;;;27.77;;
22046;SDS011;11187;49.412;20.956;2024-03-23T08:08:29;35.45;;;29.38;;
22046;SDS011;11187;49.412;20.956;2024-03-23T08:11:08;41.35;;;27.63;;
22046;SDS011;11187;49.412;20.956;2024-03-23T08:13:47;42.13;;;26.75;;
22046;SDS011;11187;49.412;20.956;2024-03-23T08:16:26;47.92;;;29.67;;
22046;SDS011;11187;49.412;20.956;2024-03-23T08:19:06;40.28;;;29.88;;
22046;SDS011;11187;49.412;20.956;2024-03-23T08:21:47;38.50;;;29.23;;
22046;SDS011;11187;49.412;20.956;2024-03-23T08:24:34;41.88;;;29.25;;
22046;SDS011;11187;49.412;20.956;2024-03-23T08:27:06;40.45;;;31.00;;
22046;SDS011;11187;49.412;20.956;2024-03-23T08:29:59;41.03;;;28.55;;
22046;SDS011;11187;49.412;20.956;2024-03-23T08:32:32;37.53;;;29.38;;
22046;SDS011;11187;49.412;20.956;2024-03-23T08:35:24;40.55;;;30.65;;
22046;SDS011;11187;49.412;20.956;2024-03-23T08:38:17;40.50;;;28.20;;
22046;SDS011;11187;49.412;20.956;2024-03-23T08:40:59;42.20;;;30.02;;
22046;SDS011;11187;49.412;20.956;2024-03-23T08:43:49;38.83;;;30.77;;
22046;SDS011;11187;49.412;20.956;2024-03-23T08:46:22;42.47;;;30.00;;
22046;SDS011;11187;49.412;20.956;2024-03-23T08:49:14;41.45;;;28.17;;
22046;SDS011;11187;49.412;20.956;2024-03-23T08:51:47;41.65;;;30.13;;
22046;SDS011;11187;49.412;20.956;2024-03-23T08:54:40;41.65;;;29.52;;
22046;SDS011;11187;49.412;20.956;2024-03-23T08:57:33;35.60;;;27.80;;
22046;SDS011;11187;49.412;20.956;2024-03-23T09:00:06;38.40;;;29.27;;
22046;SDS011;11187;49.412;20.956;2024-03-23T09:02:53;40.63;;;27.67;;
22046;SDS011;11187;49.412;20.956;2024-03-23T09:05:26;38.00;;;28.08;;
22046;SDS011;11187;49.412;20.956;2024-03-23T09:08:21;36.53;;;27.98;;
22046;SDS011;11187;49.412;20.956;2024-03-23T09:11:14;38.45;;;27.70;;
22046;SDS011;11187;49.412;20.956;2024-03-23T09:14:07;37.42;;;27.17;;
22046;SDS011;11187;49.412;20.956;2024-03-23T09:16:41;36.05;;;27.55;;
22046;SDS011;11187;49.412;20.956;2024-03-23T09:19:27;32.50;;;27.58;;
22046;SDS011;11187;49.412;20.956;2024-03-23T09:22:01;37.20;;;28.38;;
22046;SDS011;11187;49.412;20.956;2024-03-23T09:24:53;38.60;;;31.15;;
22046;SDS011;11187;49.412;20.956;2024-03-23T09:27:26;38.33;;;30.83;;
22046;SDS011;11187;49.412;20.956;2024-03-23T09:30:11;35.15;;;28.67;;
22046;SDS011;11187;49.412;20.956;2024-03-23T09:32:45;36.88;;;28.48;;
22046;SDS011;11187;49.412;20.956;2024-03-23T09:35:37;40.45;;;30.85;;
22046;SDS011;11187;49.412;20.956;2024-03-23T09:38:11;41.83;;;30.15;;
22046;SDS011;11187;49.412;20.956;2024-03-23T09:40:57;35.90;;;28.20;;
22046;SDS011;11187;49.412;20.956;2024-03-23T09:43:30;47.22;;;28.52;;
22046;SDS011;11187;49.412;20.956;2024-03-23T09:46:15;41.08;;;30.50;;
22046;SDS011;11187;49.412;20.956;2024-03-23T09:48:47;37.25;;;30.55;;
22046;SDS011;11187;49.412;20.956;2024-03-23T09:51:37;38.72;;;27.50;;
22046;SDS011;11187;49.412;20.956;2024-03-23T09:54:10;44.15;;;29.58;;
22046;SDS011;11187;49.412;20.956;2024-03-23T09:57:02;33.85;;;29.95;;
22046;SDS011;11187;49.412;20.956;2024-03-23T09:59:56;39.15;;;30.05;;
22046;SDS011;11187;49.412;20.956;2024-03-23T10:02:36;39.67;;;30.05;;
22046;SDS011;11187;49.412;20.956;2024-03-23T10:05:19;34.00;;;28.80;;
22046;SDS011;11187;49.412;20.956;2024-03-23T10:08:04;47.50;;;30.20;;
22046;SDS011;11187;49.412;20.956;2024-03-23T10:11:14;38.13;;;33.22;;
22046;SDS011;11187;49.412;20.956;2024-03-23T10:13:54;36.30;;;29.55;;
22046;SDS011;11187;49.412;20.956;2024-03-23T10:16:33;39.95;;;30.60;;
22046;SDS011;11187;49.412;20.956;2024-03-23T10:19:12;39.42;;;29.10;;
22046;SDS011;11187;49.412;20.956;2024-03-23T10:21:52;39.13;;;28.95;;
22046;SDS011;11187;49.412;20.956;2024-03-23T10:24:31;36.28;;;27.20;;
22046;SDS011;11187;49.412;20.956;2024-03-23T10:27:20;33.95;;;28.27;;
22046;SDS011;11187;49.412;20.956;2024-03-23T10:30:07;33.50;;;25.60;;
22046;SDS011;11187;49.412;20.956;2024-03-23T10:33:08;36.85;;;28.60;;
22046;SDS011;11187;49.412;20.956;2024-03-23T10:35:43;36.90;;;27.42;;
22046;SDS011;11187;49.412;20.956;2024-03-23T10:38:30;35.47;;;27.15;;
22046;SDS011;11187;49.412;20.956;2024-03-23T10:41:04;34.83;;;30.88;;
22046;SDS011;11187;49.412;20.956;2024-03-23T10:43:50;36.45;;;29.08;;
22046;SDS011;11187;49.412;20.956;2024-03-23T10:46:29;33.67;;;26.83;;
22046;SDS011;11187;49.412;20.956;2024-03-23T10:49:16;36.97;;;28.50;;
22046;SDS011;11187;49.412;20.956;2024-03-23T10:51:48;39.33;;;31.65;;
22046;SDS011;11187;49.412;20.956;2024-03-23T10:54:34;35.88;;;29.23;;
22046;SDS011;11187;49.412;20.956;2024-03-23T10:57:34;38.30;;;30.65;;
22046;SDS011;11187;49.412;20.956;2024-03-23T11:00:26;39.78;;;31.83;;
22046;SDS011;11187;49.412;20.956;2024-03-23T11:02:58;32.20;;;26.88;;
22046;SDS011;11187;49.412;20.956;2024-03-23T11:05:47;37.08;;;28.65;;
22046;SDS011;11187;49.412;20.956;2024-03-23T11:08:33;31.50;;;27.88;;
22046;SDS011;11187;49.412;20.956;2024-03-23T11:11:23;34.33;;;26.50;;
22046;SDS011;11187;49.412;20.956;2024-03-23T11:14:03;39.42;;;28.23;;
22046;SDS011;11187;49.412;20.956;2024-03-23T11:17:10;38.42;;;27.67;;
22046;SDS011;11187;49.412;20.956;2024-03-23T11:20:02;35.80;;;26.58;;
22046;SDS011;11187;49.412;20.956;2024-03-23T11:22:43;37.28;;;27.52;;
22046;SDS011;11187;49.412;20.956;2024-03-23T11:25:26;36.08;;;27.15;;
22046;SDS011;11187;49.412;20.956;2024-03-23T11:28:12;31.48;;;25.02;;
22046;SDS011;11187;49.412;20.956;2024-03-23T11:30:51;34.55;;;25.73;;
22046;SDS011;11187;49.412;20.956;2024-03-23T11:33:37;35.40;;;26.95;;
22046;SDS011;11187;49.412;20.956;2024-03-23T11:36:09;34.20;;;28.02;;
22046;SDS011;11187;49.412;20.956;2024-03-23T11:38:55;33.67;;;26.15;;
22046;SDS011;11187;49.412;20.956;2024-03-23T11:41:34;35.78;;;26.20;;
22046;SDS011;11187;49.412;20.956;2024-03-23T11:44:20;30.63;;;25.77;;
22046;SDS011;11187;49.412;20.956;2024-03-23T11:47:07;34.20;;;27.67;;
22046;SDS011;11187;49.412;20.956;2024-03-23T11:49:48;32.17;;;26.27;;
22046;SDS011;11187;49.412;20.956;2024-03-23T11:52:27;43.80;;;28.23;;
22046;SDS011;11187;49.412;20.956;2024-03-23T11:55:06;39.40;;;28.92;;
22046;SDS011;11187;49.412;20.956;2024-03-23T11:57:46;47.53;;;29.55;;
22046;SDS011;11187;49.412;20.956;2024-03-23T12:00:32;31.25;;;26.75;;
22046;SDS011;11187;49.412;20.956;2024-03-23T12:03:11;31.05;;;27.27;;
22046;SDS011;11187;49.412;20.956;2024-03-23T12:05:54;33.10;;;27.92;;
22046;SDS011;11187;49.412;20.956;2024-03-23T12:08:34;33.35;;;27.33;;
22046;SDS011;11187;49.412;20.956;2024-03-23T12:11:14;31.52;;;25.63;;
22046;SDS011;11187;49.412;20.956;2024-03-23T12:13:54;36.30;;;26.35;;
22046;SDS011;11187;49.412;20.956;2024-03-23T12:16:45;32.03;;;25.13;;
22046;SDS011;11187;49.412;20.956;2024-03-23T12:19:24;29.50;;;25.60;;
22046;SDS011;11187;49.412;20.956;2024-03-23T12:22:06;35.08;;;27.08;;
22046;SDS011;11187;49.412;20.956;2024-03-23T12:24:49;32.55;;;27.60;;
22046;SDS011;11187;49.412;20.956;2024-03-23T12:27:35;33.22;;;25.83;;
22046;SDS011;11187;49.412;20.956;2024-03-23T12:30:28;32.05;;;26.23;;
22046;SDS011;11187;49.412;20.956;2024-03-23T12:33:01;32.13;;;28.65;;
22046;SDS011;11187;49.412;20.956;2024-03-23T12:35:47;32.38;;;25.25;;
22046;SDS011;11187;49.412;20.956;2024-03-23T12:38:20;33.33;;;26.00;;
22046;SDS011;11187;49.412;20.956;2024-03-23T12:41:05;31.63;;;24.35;;
22046;SDS011;11187;49.412;20.956;2024-03-23T12:43:44;34.50;;;25.27;;
22046;SDS011;11187;49.412;20.956;2024-03-23T12:46:30;31.08;;;23.60;;
22046;SDS011;11187;49.412;20.956;2024-03-23T12:49:02;30.27;;;24.05;;
22046;SDS011;11187;49.412;20.956;2024-03-23T12:51:55;28.02;;;23.30;;
22046;SDS011;11187;49.412;20.956;2024-03-23T12:54:27;29.10;;;24.95;;
22046;SDS011;11187;49.412;20.956;2024-03-23T12:57:13;32.75;;;25.13;;
22046;SDS011;11187;49.412;20.956;2024-03-23T12:59:45;34.30;;;25.15;;
22046;SDS011;11187;49.412;20.956;2024-03-23T13:02:31;31.50;;;25.77;;
22046;SDS011;11187;49.412;20.956;2024-03-23T13:05:03;28.48;;;23.55;;
22046;SDS011;11187;49.412;20.956;2024-03-23T13:07:49;35.25;;;25.38;;
22046;SDS011;11187;49.412;20.956;2024-03-23T13:10:21;29.48;;;23.92;;
22046;SDS011;11187;49.412;20.956;2024-03-23T13:13:07;30.00;;;25.00;;
22046;SDS011;11187;49.412;20.956;2024-03-23T13:15:50;33.20;;;27.50;;
22046;SDS011;11187;49.412;20.956;2024-03-23T13:18:29;29.90;;;24.65;;
22046;SDS011;11187;49.412;20.956;2024-03-23T13:21:08;30.52;;;24.77;;
22046;SDS011;11187;49.412;20.956;2024-03-23T13:23:54;32.35;;;25.67;;
22046;SDS011;11187;49.412;20.956;2024-03-23T13:26:40;32.70;;;24.30;;
22046;SDS011;11187;49.412;20.956;2024-03-23T13:29:33;35.65;;;24.85;;
22046;SDS011;11187;49.412;20.956;2024-03-23T13:32:12;29.58;;;23.67;;
22046;SDS011;11187;49.412;20.956;2024-03-23T13:35:04;27.00;;;22.13;;
22046;SDS011;11187;49.412;20.956;2024-03-23T13:37:38;27.60;;;23.17;;
22046;SDS011;11187;49.412;20.956;2024-03-23T13:40:30;28.73;;;23.35;;
22046;SDS011;11187;49.412;20.956;2024-03-23T13:43:24;29.40;;;22.52;;
22046;SDS011;11187;49.412;20.956;2024-03-23T13:45:59;28.05;;;24.48;;
22046;SDS011;11187;49.412;20.956;2024-03-23T13:48:45;26.23;;;23.13;;
22046;SDS011;11187;49.412;20.956;2024-03-23T13:51:22;27.77;;;22.80;;
22046;SDS011;11187;49.412;20.956;2024-03-23T13:54:15;27.80;;;24.13;;
22046;SDS011;11187;49.412;20.956;2024-03-23T13:56:55;28.50;;;23.98;;
22046;SDS011;11187;49.412;20.956;2024-03-23T13:59:48;26.08;;;22.83;;
22046;SDS011;11187;49.412;20.956;2024-03-23T14:02:41;27.08;;;24.10;;
22046;SDS011;11187;49.412;20.956;2024-03-23T14:05:14;26.27;;;23.33;;
22046;SDS011;11187;49.412;20.956;2024-03-23T14:07:59;24.55;;;21.92;;
22046;SDS011;11187;49.412;20.956;2024-03-23T14:10:32;25.48;;;22.80;;
22046;SDS011;11187;49.412;20.956;2024-03-23T14:13:17;24.80;;;22.02;;
22046;SDS011;11187;49.412;20.956;2024-03-23T14:15:53;24.67;;;22.23;;
22046;SDS011;11187;49.412;20.956;2024-03-23T14:18:47;25.30;;;21.15;;
22046;SDS011;11187;49.412;20.956;2024-03-23T14:21:20;23.92;;;21.33;;
22046;SDS011;11187;49.412;20.956;2024-03-23T14:24:12;24.67;;;20.10;;
22046;SDS011;11187;49.412;20.956;2024-03-23T14:27:05;21.27;;;19.17;;
22046;SDS011;11187;49.412;20.956;2024-03-23T14:29:58;19.73;;;17.73;;
22046;SDS011;11187;49.412;20.956;2024-03-23T14:32:51;20.60;;;18.60;;
22046;SDS011;11187;49.412;20.956;2024-03-23T14:35:24;21.85;;;19.63;;
22046;SDS011;11187;49.412;20.956;2024-03-23T14:38:11;20.58;;;18.52;;
22046;SDS011;11187;49.412;20.956;2024-03-23T14:40:44;20.13;;;18.02;;
22046;SDS011;11187;49.412;20.956;2024-03-23T14:43:31;20.17;;;18.17;;
22046;SDS011;11187;49.412;20.956;2024-03-23T14:46:13;21.23;;;19.27;;
22046;SDS011;11187;49.412;20.956;2024-03-23T14:49:01;21.58;;;17.23;;
22046;SDS011;11187;49.412;20.956;2024-03-23T14:51:34;21.73;;;18.75;;
22046;SDS011;11187;49.412;20.956;2024-03-23T14:54:26;19.65;;;17.83;;
22046;SDS011;11187;49.412;20.956;2024-03-23T14:57:20;20.75;;;18.65;;
22046;SDS011;11187;49.412;20.956;2024-03-23T15:00:14;23.30;;;18.48;;
22046;SDS011;11187;49.412;20.956;2024-03-23T15:03:07;19.35;;;17.45;;
22046;SDS011;11187;49.412;20.956;2024-03-23T15:05:40;19.63;;;17.55;;
22046;SDS011;11187;49.412;20.956;2024-03-23T15:08:25;18.17;;;16.08;;
22046;SDS011;11187;49.412;20.956;2024-03-23T15:10:59;19.27;;;17.00;;
22046;SDS011;11187;49.412;20.956;2024-03-23T15:13:45;18.52;;;16.73;;
22046;SDS011;11187;49.412;20.956;2024-03-23T15:16:22;19.15;;;17.15;;
22046;SDS011;11187;49.412;20.956;2024-03-23T15:19:08;19.25;;;17.17;;
22046;SDS011;11187;49.412;20.956;2024-03-23T15:21:43;18.85;;;16.77;;
22046;SDS011;11187;49.412;20.956;2024-03-23T15:24:29;21.25;;;19.13;;
22046;SDS011;11187;49.412;20.956;2024-03-23T15:27:03;18.95;;;17.02;;
22046;SDS011;11187;49.412;20.956;2024-03-23T15:29:48;20.15;;;18.08;;
22046;SDS011;11187;49.412;20.956;2024-03-23T15:32:21;21.85;;;19.08;;
22046;SDS011;11187;49.412;20.956;2024-03-23T15:35:06;21.23;;;18.92;;
22046;SDS011;11187;49.412;20.956;2024-03-23T15:37:39;19.38;;;17.58;;
22046;SDS011;11187;49.412;20.956;2024-03-23T15:40:24;20.70;;;17.90;;
22046;SDS011;11187;49.412;20.956;2024-03-23T15:43:04;21.10;;;18.90;;
22046;SDS011;11187;49.412;20.956;2024-03-23T15:45:42;19.42;;;17.52;;
22046;SDS011;11187;49.412;20.956;2024-03-23T15:48:21;20.83;;;18.60;;
22046;SDS011;11187;49.412;20.956;2024-03-23T15:51:01;21.23;;;18.90;;
22046;SDS011;11187;49.412;20.956;2024-03-23T15:53:42;21.00;;;18.95;;
22046;SDS011;11187;49.412;20.956;2024-03-23T15:56:37;18.35;;;16.35;;
22046;SDS011;11187;49.412;20.956;2024-03-23T15:59:16;18.85;;;17.05;;
22046;SDS011;11187;49.412;20.956;2024-03-23T16:02:02;20.88;;;18.83;;
22046;SDS011;11187;49.412;20.956;2024-03-23T16:04:35;20.20;;;17.92;;
22046;SDS011;11187;49.412;20.956;2024-03-23T16:07:21;20.83;;;18.58;;
22046;SDS011;11187;49.412;20.956;2024-03-23T16:09:53;21.33;;;19.30;;
22046;SDS011;11187;49.412;20.956;2024-03-23T16:12:43;22.15;;;20.05;;
22046;SDS011;11187;49.412;20.956;2024-03-23T16:15:15;19.95;;;17.85;;
22046;SDS011;11187;49.412;20.956;2024-03-23T16:18:01;21.65;;;19.38;;
22046;SDS011;11187;49.412;20.956;2024-03-23T16:20:40;19.50;;;16.63;;
22046;SDS011;11187;49.412;20.956;2024-03-23T16:23:26;20.05;;;17.92;;
22046;SDS011;11187;49.412;20.956;2024-03-23T16:26:00;20.77;;;19.08;;
22046;SDS011;11187;49.412;20.956;2024-03-23T16:28:45;19.83;;;18.02;;